NCAR-RAP Real-Time Weather Data

Output produced by METARs form (08 May 2021  02:06 UTC)
found at http://weather.rap.ucar.edu/surface/
 
KCNY 080153Z AUTO 20011KT 10SM CLR 27/M14 A2971 RMK AO2 PK WND 20026/0103 SLP003 T02671139
KCNY 080053Z AUTO 23016G24KT 10SM CLR 28/M14 A2973 RMK AO2 PK WND 21034/0011 SLP015 T02831139
KCNY 072353Z AUTO 20018G28KT 10SM CLR 29/M14 A2975 RMK AO2 PK WND 21030/2259 SLP020 T02941144 10311 20289 56026
KCNY 072253Z AUTO 23015G26KT 10SM CLR 30/M15 A2977 RMK AO2 PK WND 22033/2206 SLP026 T03001150
KCNY 072153Z AUTO 23023G34KT 10SM CLR 31/M18 A2980 RMK AO2 PK WND 21034/2149 SLP033 T03061183
KCNY 072053Z AUTO 22016G32KT 10SM CLR 29/M19 A2984 RMK AO2 PK WND 24033/2031 SLP051 T02941189 56024
KCNY 071953Z AUTO 20020G34KT 10SM CLR 30/M14 A2986 RMK AO2 PK WND 19034/1953 SLP053 T03001139
KCNY 071853Z AUTO 23015G28KT 10SM CLR 30/M12 A2989 RMK AO2 PK WND 24031/1835 SLP064 T03001117
KCNY 071753Z AUTO 21022G30KT 10SM CLR 29/M09 A2992 RMK AO2 PK WND 22030/1749 SLP079 T02891094 10289 20111 58016
KCNY 071653Z AUTO 00000KT 10SM CLR 26/M08 A2995 RMK AO2 SLP087 T02611078
KCNY 071553Z AUTO 11004KT 10SM CLR 23/M07 A2996 RMK AO2 SLP097 T02281072
KCNY 071453Z AUTO 13008KT 10SM CLR 20/M06 A2997 RMK AO2 SLP094 T02001056 50002
KCNY 071353Z AUTO 12010KT 10SM CLR 17/M06 A2998 RMK AO2 SLP096 T01721056
KCNY 071253Z AUTO 15008KT 10SM CLR 12/M06 A2996 RMK AO2 SLP096 T01221061